sensor_id;sensor_type;location;lat;lon;timestamp;P1;durP1;ratioP1;P2;durP2;ratioP2
64615;SDS011;51027;42.162;24.754;2023-03-22T00:00:06;37.88;;;17.58;;
64615;SDS011;51027;42.162;24.754;2023-03-22T00:02:37;37.17;;;17.48;;
64615;SDS011;51027;42.162;24.754;2023-03-22T00:05:02;39.00;;;17.67;;
64615;SDS011;51027;42.162;24.754;2023-03-22T00:07:28;37.33;;;18.25;;
64615;SDS011;51027;42.162;24.754;2023-03-22T00:09:53;39.42;;;18.88;;
64615;SDS011;51027;42.162;24.754;2023-03-22T00:12:19;34.47;;;17.33;;
64615;SDS011;51027;42.162;24.754;2023-03-22T00:14:44;43.83;;;19.55;;
64615;SDS011;51027;42.162;24.754;2023-03-22T00:17:10;37.50;;;18.40;;
64615;SDS011;51027;42.162;24.754;2023-03-22T00:19:35;39.42;;;18.63;;
64615;SDS011;51027;42.162;24.754;2023-03-22T00:22:01;40.65;;;19.27;;
64615;SDS011;51027;42.162;24.754;2023-03-22T00:24:27;43.35;;;20.13;;
64615;SDS011;51027;42.162;24.754;2023-03-22T00:26:53;41.13;;;18.67;;
64615;SDS011;51027;42.162;24.754;2023-03-22T00:29:18;39.53;;;19.90;;
64615;SDS011;51027;42.162;24.754;2023-03-22T00:31:46;44.40;;;20.27;;
64615;SDS011;51027;42.162;24.754;2023-03-22T00:34:13;44.13;;;20.90;;
64615;SDS011;51027;42.162;24.754;2023-03-22T00:36:38;42.03;;;20.05;;
64615;SDS011;51027;42.162;24.754;2023-03-22T00:39:03;42.72;;;20.50;;
64615;SDS011;51027;42.162;24.754;2023-03-22T00:41:29;39.85;;;20.63;;
64615;SDS011;51027;42.162;24.754;2023-03-22T00:43:54;39.60;;;18.83;;
64615;SDS011;51027;42.162;24.754;2023-03-22T00:46:20;40.22;;;20.75;;
64615;SDS011;51027;42.162;24.754;2023-03-22T00:48:45;41.05;;;19.58;;
64615;SDS011;51027;42.162;24.754;2023-03-22T00:51:12;39.15;;;19.00;;
64615;SDS011;51027;42.162;24.754;2023-03-22T00:53:39;40.67;;;21.40;;
64615;SDS011;51027;42.162;24.754;2023-03-22T00:56:05;39.67;;;21.08;;
64615;SDS011;51027;42.162;24.754;2023-03-22T00:58:31;41.28;;;20.50;;
64615;SDS011;51027;42.162;24.754;2023-03-22T01:00:56;44.67;;;20.08;;
64615;SDS011;51027;42.162;24.754;2023-03-22T01:03:22;41.35;;;19.63;;
64615;SDS011;51027;42.162;24.754;2023-03-22T01:05:48;38.67;;;18.27;;
64615;SDS011;51027;42.162;24.754;2023-03-22T01:08:19;37.53;;;17.55;;
64615;SDS011;51027;42.162;24.754;2023-03-22T01:10:47;39.92;;;17.75;;
64615;SDS011;51027;42.162;24.754;2023-03-22T01:13:13;38.60;;;19.02;;
64615;SDS011;51027;42.162;24.754;2023-03-22T01:15:38;38.88;;;19.52;;
64615;SDS011;51027;42.162;24.754;2023-03-22T01:18:05;40.42;;;19.27;;
64615;SDS011;51027;42.162;24.754;2023-03-22T01:20:32;35.40;;;17.92;;
64615;SDS011;51027;42.162;24.754;2023-03-22T01:22:57;37.72;;;17.42;;
64615;SDS011;51027;42.162;24.754;2023-03-22T01:25:23;39.95;;;19.90;;
64615;SDS011;51027;42.162;24.754;2023-03-22T01:27:49;40.95;;;18.40;;
64615;SDS011;51027;42.162;24.754;2023-03-22T01:30:14;39.47;;;19.50;;
64615;SDS011;51027;42.162;24.754;2023-03-22T01:32:40;42.72;;;20.60;;
64615;SDS011;51027;42.162;24.754;2023-03-22T01:35:06;36.53;;;17.83;;
64615;SDS011;51027;42.162;24.754;2023-03-22T01:37:31;36.50;;;17.13;;
64615;SDS011;51027;42.162;24.754;2023-03-22T01:39:57;37.90;;;16.85;;
64615;SDS011;51027;42.162;24.754;2023-03-22T01:42:24;37.72;;;17.92;;
64615;SDS011;51027;42.162;24.754;2023-03-22T01:45:16;43.45;;;18.08;;
64615;SDS011;51027;42.162;24.754;2023-03-22T01:47:58;28.98;;;13.00;;
64615;SDS011;51027;42.162;24.754;2023-03-22T01:50:46;30.85;;;15.93;;
64615;SDS011;51027;42.162;24.754;2023-03-22T01:53:20;35.45;;;17.27;;
64615;SDS011;51027;42.162;24.754;2023-03-22T01:55:49;31.25;;;15.50;;
64615;SDS011;51027;42.162;24.754;2023-03-22T01:58:16;34.85;;;16.73;;
64615;SDS011;51027;42.162;24.754;2023-03-22T02:00:42;35.13;;;16.33;;
64615;SDS011;51027;42.162;24.754;2023-03-22T02:03:08;34.72;;;17.23;;
64615;SDS011;51027;42.162;24.754;2023-03-22T02:05:36;34.47;;;16.25;;
64615;SDS011;51027;42.162;24.754;2023-03-22T02:08:03;33.33;;;16.85;;
64615;SDS011;51027;42.162;24.754;2023-03-22T02:10:29;34.47;;;15.68;;
64615;SDS011;51027;42.162;24.754;2023-03-22T02:15:33;43.85;;;20.00;;
64615;SDS011;51027;42.162;24.754;2023-03-22T02:18:22;34.60;;;15.38;;
64615;SDS011;51027;42.162;24.754;2023-03-22T02:24:06;33.95;;;15.52;;
64615;SDS011;51027;42.162;24.754;2023-03-22T02:32:16;36.05;;;17.17;;
64615;SDS011;51027;42.162;24.754;2023-03-22T02:37:57;37.05;;;17.88;;
64615;SDS011;51027;42.162;24.754;2023-03-22T02:40:33;39.28;;;17.13;;
64615;SDS011;51027;42.162;24.754;2023-03-22T02:48:12;36.17;;;16.83;;
64615;SDS011;51027;42.162;24.754;2023-03-22T02:50:54;38.88;;;16.63;;
64615;SDS011;51027;42.162;24.754;2023-03-22T02:55:50;33.50;;;16.35;;
64615;SDS011;51027;42.162;24.754;2023-03-22T02:58:26;35.83;;;17.65;;
64615;SDS011;51027;42.162;24.754;2023-03-22T03:00:56;35.78;;;16.55;;
64615;SDS011;51027;42.162;24.754;2023-03-22T03:03:27;37.28;;;16.85;;
64615;SDS011;51027;42.162;24.754;2023-03-22T03:05:57;35.00;;;17.55;;
64615;SDS011;51027;42.162;24.754;2023-03-22T03:08:26;37.53;;;17.02;;
64615;SDS011;51027;42.162;24.754;2023-03-22T03:10:54;37.38;;;18.35;;
64615;SDS011;51027;42.162;24.754;2023-03-22T03:13:19;37.78;;;18.95;;
64615;SDS011;51027;42.162;24.754;2023-03-22T03:15:47;32.30;;;16.45;;
64615;SDS011;51027;42.162;24.754;2023-03-22T03:28:38;37.80;;;18.95;;
64615;SDS011;51027;42.162;24.754;2023-03-22T03:34:09;37.10;;;18.35;;
64615;SDS011;51027;42.162;24.754;2023-03-22T03:36:41;36.40;;;19.38;;
64615;SDS011;51027;42.162;24.754;2023-03-22T03:39:14;43.00;;;19.95;;
64615;SDS011;51027;42.162;24.754;2023-03-22T03:41:42;36.85;;;18.95;;
64615;SDS011;51027;42.162;24.754;2023-03-22T03:44:10;34.30;;;17.63;;
64615;SDS011;51027;42.162;24.754;2023-03-22T03:46:37;37.22;;;17.70;;
64615;SDS011;51027;42.162;24.754;2023-03-22T03:49:03;36.83;;;18.92;;
64615;SDS011;51027;42.162;24.754;2023-03-22T03:51:29;35.00;;;18.60;;
64615;SDS011;51027;42.162;24.754;2023-03-22T03:53:57;35.72;;;20.52;;
64615;SDS011;51027;42.162;24.754;2023-03-22T03:56:22;33.95;;;17.33;;
64615;SDS011;51027;42.162;24.754;2023-03-22T03:58:48;33.55;;;17.77;;
64615;SDS011;51027;42.162;24.754;2023-03-22T04:01:13;34.17;;;18.48;;
64615;SDS011;51027;42.162;24.754;2023-03-22T04:03:38;32.47;;;17.55;;
64615;SDS011;51027;42.162;24.754;2023-03-22T04:06:04;37.08;;;18.38;;
64615;SDS011;51027;42.162;24.754;2023-03-22T04:08:30;30.88;;;16.13;;
64615;SDS011;51027;42.162;24.754;2023-03-22T04:10:55;33.03;;;16.20;;
64615;SDS011;51027;42.162;24.754;2023-03-22T04:13:21;32.38;;;16.40;;
64615;SDS011;51027;42.162;24.754;2023-03-22T04:15:52;29.85;;;16.23;;
64615;SDS011;51027;42.162;24.754;2023-03-22T04:18:18;32.28;;;16.75;;
64615;SDS011;51027;42.162;24.754;2023-03-22T04:20:45;34.05;;;16.92;;
64615;SDS011;51027;42.162;24.754;2023-03-22T04:23:13;35.22;;;17.23;;
64615;SDS011;51027;42.162;24.754;2023-03-22T04:25:39;33.78;;;16.25;;
64615;SDS011;51027;42.162;24.754;2023-03-22T04:28:05;37.63;;;19.77;;
64615;SDS011;51027;42.162;24.754;2023-03-22T04:30:31;34.42;;;17.95;;
64615;SDS011;51027;42.162;24.754;2023-03-22T04:33:00;32.83;;;16.52;;
64615;SDS011;51027;42.162;24.754;2023-03-22T04:35:31;33.75;;;16.27;;
64615;SDS011;51027;42.162;24.754;2023-03-22T04:37:57;30.20;;;15.82;;
64615;SDS011;51027;42.162;24.754;2023-03-22T04:40:25;31.35;;;16.40;;
64615;SDS011;51027;42.162;24.754;2023-03-22T04:42:52;35.13;;;16.75;;
64615;SDS011;51027;42.162;24.754;2023-03-22T04:45:21;33.00;;;16.15;;
64615;SDS011;51027;42.162;24.754;2023-03-22T04:47:47;31.95;;;16.38;;
64615;SDS011;51027;42.162;24.754;2023-03-22T04:50:13;30.92;;;15.73;;
64615;SDS011;51027;42.162;24.754;2023-03-22T04:52:38;29.70;;;15.77;;
64615;SDS011;51027;42.162;24.754;2023-03-22T04:55:04;37.42;;;18.85;;
64615;SDS011;51027;42.162;24.754;2023-03-22T04:57:30;36.40;;;17.65;;
64615;SDS011;51027;42.162;24.754;2023-03-22T04:59:55;34.10;;;17.70;;
64615;SDS011;51027;42.162;24.754;2023-03-22T05:02:20;34.00;;;18.00;;
64615;SDS011;51027;42.162;24.754;2023-03-22T05:04:46;37.50;;;18.33;;
64615;SDS011;51027;42.162;24.754;2023-03-22T05:07:11;33.10;;;17.58;;
64615;SDS011;51027;42.162;24.754;2023-03-22T05:09:37;33.10;;;17.70;;
64615;SDS011;51027;42.162;24.754;2023-03-22T05:12:02;37.53;;;18.13;;
64615;SDS011;51027;42.162;24.754;2023-03-22T05:14:28;34.67;;;17.60;;
64615;SDS011;51027;42.162;24.754;2023-03-22T05:16:53;32.55;;;16.35;;
64615;SDS011;51027;42.162;24.754;2023-03-22T05:19:18;37.78;;;19.48;;
64615;SDS011;51027;42.162;24.754;2023-03-22T05:21:46;32.88;;;17.58;;
64615;SDS011;51027;42.162;24.754;2023-03-22T05:24:12;36.38;;;17.23;;
64615;SDS011;51027;42.162;24.754;2023-03-22T05:26:37;35.63;;;17.60;;
64615;SDS011;51027;42.162;24.754;2023-03-22T05:29:06;33.25;;;17.88;;
64615;SDS011;51027;42.162;24.754;2023-03-22T05:31:35;36.85;;;18.08;;
64615;SDS011;51027;42.162;24.754;2023-03-22T05:34:00;35.45;;;18.23;;
64615;SDS011;51027;42.162;24.754;2023-03-22T05:36:27;36.47;;;18.10;;
64615;SDS011;51027;42.162;24.754;2023-03-22T05:38:54;37.20;;;19.35;;
64615;SDS011;51027;42.162;24.754;2023-03-22T05:41:20;37.97;;;19.63;;
64615;SDS011;51027;42.162;24.754;2023-03-22T05:43:46;35.10;;;18.35;;
64615;SDS011;51027;42.162;24.754;2023-03-22T05:46:11;36.03;;;18.08;;
64615;SDS011;51027;42.162;24.754;2023-03-22T05:48:37;35.83;;;17.88;;
64615;SDS011;51027;42.162;24.754;2023-03-22T05:51:05;36.97;;;18.27;;
64615;SDS011;51027;42.162;24.754;2023-03-22T05:53:35;36.97;;;19.02;;
64615;SDS011;51027;42.162;24.754;2023-03-22T05:56:00;39.38;;;18.83;;
64615;SDS011;51027;42.162;24.754;2023-03-22T05:58:27;36.15;;;18.05;;
64615;SDS011;51027;42.162;24.754;2023-03-22T06:00:54;36.70;;;18.35;;
64615;SDS011;51027;42.162;24.754;2023-03-22T06:03:20;36.45;;;18.67;;
64615;SDS011;51027;42.162;24.754;2023-03-22T06:05:46;33.40;;;15.85;;
64615;SDS011;51027;42.162;24.754;2023-03-22T06:08:15;35.15;;;17.92;;
64615;SDS011;51027;42.162;24.754;2023-03-22T06:10:40;38.70;;;17.48;;
64615;SDS011;51027;42.162;24.754;2023-03-22T06:13:06;35.22;;;17.42;;
64615;SDS011;51027;42.162;24.754;2023-03-22T06:15:31;34.88;;;16.90;;
64615;SDS011;51027;42.162;24.754;2023-03-22T06:17:57;34.72;;;18.08;;
64615;SDS011;51027;42.162;24.754;2023-03-22T06:20:22;34.70;;;17.98;;
64615;SDS011;51027;42.162;24.754;2023-03-22T06:22:49;39.70;;;18.95;;
64615;SDS011;51027;42.162;24.754;2023-03-22T06:25:15;33.95;;;17.52;;
64615;SDS011;51027;42.162;24.754;2023-03-22T06:27:40;42.22;;;20.08;;
64615;SDS011;51027;42.162;24.754;2023-03-22T06:30:06;35.35;;;17.30;;
64615;SDS011;51027;42.162;24.754;2023-03-22T06:32:31;34.65;;;18.48;;
64615;SDS011;51027;42.162;24.754;2023-03-22T06:34:57;35.42;;;18.92;;
64615;SDS011;51027;42.162;24.754;2023-03-22T06:37:23;34.25;;;17.60;;
64615;SDS011;51027;42.162;24.754;2023-03-22T06:39:48;36.30;;;18.30;;
64615;SDS011;51027;42.162;24.754;2023-03-22T06:42:15;35.60;;;17.73;;
64615;SDS011;51027;42.162;24.754;2023-03-22T06:44:41;37.83;;;18.90;;
64615;SDS011;51027;42.162;24.754;2023-03-22T06:47:08;34.95;;;18.00;;
64615;SDS011;51027;42.162;24.754;2023-03-22T06:49:34;39.65;;;18.65;;
64615;SDS011;51027;42.162;24.754;2023-03-22T06:52:00;36.88;;;19.00;;
64615;SDS011;51027;42.162;24.754;2023-03-22T06:54:25;39.22;;;19.33;;
64615;SDS011;51027;42.162;24.754;2023-03-22T06:56:51;35.03;;;19.42;;
64615;SDS011;51027;42.162;24.754;2023-03-22T06:59:16;41.10;;;22.25;;
64615;SDS011;51027;42.162;24.754;2023-03-22T07:01:42;42.13;;;24.05;;
64615;SDS011;51027;42.162;24.754;2023-03-22T07:04:07;41.60;;;22.55;;
64615;SDS011;51027;42.162;24.754;2023-03-22T07:06:32;42.05;;;22.33;;
64615;SDS011;51027;42.162;24.754;2023-03-22T07:08:58;48.38;;;23.23;;
64615;SDS011;51027;42.162;24.754;2023-03-22T07:11:23;44.25;;;21.73;;
64615;SDS011;51027;42.162;24.754;2023-03-22T07:13:51;51.03;;;23.75;;
64615;SDS011;51027;42.162;24.754;2023-03-22T07:16:17;42.70;;;23.48;;
64615;SDS011;51027;42.162;24.754;2023-03-22T07:18:43;50.78;;;24.77;;
64615;SDS011;51027;42.162;24.754;2023-03-22T07:21:08;46.20;;;24.17;;
64615;SDS011;51027;42.162;24.754;2023-03-22T07:23:34;42.33;;;22.80;;
64615;SDS011;51027;42.162;24.754;2023-03-22T07:25:59;43.63;;;21.95;;
64615;SDS011;51027;42.162;24.754;2023-03-22T07:28:25;38.78;;;18.23;;
64615;SDS011;51027;42.162;24.754;2023-03-22T07:31:04;39.90;;;22.15;;
64615;SDS011;51027;42.162;24.754;2023-03-22T07:33:31;42.55;;;22.42;;
64615;SDS011;51027;42.162;24.754;2023-03-22T07:35:57;40.20;;;20.88;;
64615;SDS011;51027;42.162;24.754;2023-03-22T07:38:23;39.85;;;21.15;;
64615;SDS011;51027;42.162;24.754;2023-03-22T07:40:50;44.10;;;21.05;;
64615;SDS011;51027;42.162;24.754;2023-03-22T07:43:18;44.60;;;22.85;;
64615;SDS011;51027;42.162;24.754;2023-03-22T07:45:44;50.40;;;27.95;;
64615;SDS011;51027;42.162;24.754;2023-03-22T07:48:09;44.00;;;23.52;;
64615;SDS011;51027;42.162;24.754;2023-03-22T07:50:37;42.45;;;22.48;;
64615;SDS011;51027;42.162;24.754;2023-03-22T07:53:03;42.17;;;23.80;;
64615;SDS011;51027;42.162;24.754;2023-03-22T07:55:28;42.33;;;21.13;;
64615;SDS011;51027;42.162;24.754;2023-03-22T07:57:54;47.28;;;21.88;;
64615;SDS011;51027;42.162;24.754;2023-03-22T08:00:20;42.58;;;22.92;;
64615;SDS011;51027;42.162;24.754;2023-03-22T08:02:46;43.25;;;22.13;;
64615;SDS011;51027;42.162;24.754;2023-03-22T08:05:11;43.17;;;21.38;;
64615;SDS011;51027;42.162;24.754;2023-03-22T08:07:37;42.05;;;21.90;;
64615;SDS011;51027;42.162;24.754;2023-03-22T08:10:03;45.97;;;23.40;;
64615;SDS011;51027;42.162;24.754;2023-03-22T08:12:29;43.05;;;23.80;;
64615;SDS011;51027;42.162;24.754;2023-03-22T08:14:56;44.35;;;24.58;;
64615;SDS011;51027;42.162;24.754;2023-03-22T08:17:21;45.15;;;24.23;;
64615;SDS011;51027;42.162;24.754;2023-03-22T08:19:47;44.55;;;22.10;;
64615;SDS011;51027;42.162;24.754;2023-03-22T08:22:14;43.05;;;23.02;;
64615;SDS011;51027;42.162;24.754;2023-03-22T08:24:39;43.88;;;23.65;;
64615;SDS011;51027;42.162;24.754;2023-03-22T08:27:05;39.65;;;22.08;;
64615;SDS011;51027;42.162;24.754;2023-03-22T08:29:30;41.97;;;21.83;;
64615;SDS011;51027;42.162;24.754;2023-03-22T08:31:56;41.67;;;23.02;;
64615;SDS011;51027;42.162;24.754;2023-03-22T08:36:51;39.17;;;20.83;;
64615;SDS011;51027;42.162;24.754;2023-03-22T08:39:17;40.53;;;21.65;;
64615;SDS011;51027;42.162;24.754;2023-03-22T08:41:42;42.38;;;21.75;;
64615;SDS011;51027;42.162;24.754;2023-03-22T08:44:08;41.90;;;20.88;;
64615;SDS011;51027;42.162;24.754;2023-03-22T08:46:33;39.78;;;20.33;;
64615;SDS011;51027;42.162;24.754;2023-03-22T08:48:59;41.22;;;21.55;;
64615;SDS011;51027;42.162;24.754;2023-03-22T08:51:26;42.70;;;22.75;;
64615;SDS011;51027;42.162;24.754;2023-03-22T08:53:51;44.35;;;22.48;;
64615;SDS011;51027;42.162;24.754;2023-03-22T08:56:17;40.40;;;21.90;;
64615;SDS011;51027;42.162;24.754;2023-03-22T08:58:43;43.03;;;22.88;;
64615;SDS011;51027;42.162;24.754;2023-03-22T09:01:11;45.83;;;22.05;;
64615;SDS011;51027;42.162;24.754;2023-03-22T09:03:38;40.78;;;22.98;;
64615;SDS011;51027;42.162;24.754;2023-03-22T09:06:04;43.75;;;21.27;;
64615;SDS011;51027;42.162;24.754;2023-03-22T09:08:30;43.33;;;21.75;;
64615;SDS011;51027;42.162;24.754;2023-03-22T09:10:56;43.80;;;22.30;;
64615;SDS011;51027;42.162;24.754;2023-03-22T09:13:21;42.70;;;21.58;;
64615;SDS011;51027;42.162;24.754;2023-03-22T09:15:47;48.63;;;24.08;;
64615;SDS011;51027;42.162;24.754;2023-03-22T09:18:14;39.75;;;20.75;;
64615;SDS011;51027;42.162;24.754;2023-03-22T09:20:40;42.95;;;22.52;;
64615;SDS011;51027;42.162;24.754;2023-03-22T09:23:06;46.40;;;24.27;;
64615;SDS011;51027;42.162;24.754;2023-03-22T09:25:31;45.88;;;24.08;;
64615;SDS011;51027;42.162;24.754;2023-03-22T09:27:57;44.35;;;24.25;;
64615;SDS011;51027;42.162;24.754;2023-03-22T09:30:22;51.70;;;25.38;;
64615;SDS011;51027;42.162;24.754;2023-03-22T09:32:48;47.63;;;24.55;;
64615;SDS011;51027;42.162;24.754;2023-03-22T09:35:13;50.35;;;27.27;;
64615;SDS011;51027;42.162;24.754;2023-03-22T09:37:39;46.33;;;24.73;;
64615;SDS011;51027;42.162;24.754;2023-03-22T09:40:05;42.67;;;21.00;;
64615;SDS011;51027;42.162;24.754;2023-03-22T09:42:32;43.97;;;21.20;;
64615;SDS011;51027;42.162;24.754;2023-03-22T09:45:03;43.28;;;22.40;;
64615;SDS011;51027;42.162;24.754;2023-03-22T09:47:35;41.33;;;21.98;;
64615;SDS011;51027;42.162;24.754;2023-03-22T09:50:11;34.85;;;19.38;;
64615;SDS011;51027;42.162;24.754;2023-03-22T09:52:40;40.00;;;20.63;;
64615;SDS011;51027;42.162;24.754;2023-03-22T09:55:29;37.65;;;19.50;;
64615;SDS011;51027;42.162;24.754;2023-03-22T09:58:03;38.08;;;19.35;;
64615;SDS011;51027;42.162;24.754;2023-03-22T10:00:48;37.70;;;19.67;;
64615;SDS011;51027;42.162;24.754;2023-03-22T10:03:25;40.80;;;20.35;;
64615;SDS011;51027;42.162;24.754;2023-03-22T10:06:01;37.97;;;20.63;;
64615;SDS011;51027;42.162;24.754;2023-03-22T10:11:31;38.75;;;20.58;;
64615;SDS011;51027;42.162;24.754;2023-03-22T10:14:29;37.63;;;19.95;;
64615;SDS011;51027;42.162;24.754;2023-03-22T10:17:00;35.78;;;18.63;;
64615;SDS011;51027;42.162;24.754;2023-03-22T10:22:00;36.45;;;19.23;;
64615;SDS011;51027;42.162;24.754;2023-03-22T10:24:34;41.92;;;20.60;;
64615;SDS011;51027;42.162;24.754;2023-03-22T10:27:02;38.15;;;21.25;;
64615;SDS011;51027;42.162;24.754;2023-03-22T10:29:40;38.75;;;20.33;;
64615;SDS011;51027;42.162;24.754;2023-03-22T10:35:13;37.20;;;19.45;;
64615;SDS011;51027;42.162;24.754;2023-03-22T10:37:40;39.90;;;21.60;;
64615;SDS011;51027;42.162;24.754;2023-03-22T10:40:11;39.63;;;23.15;;
64615;SDS011;51027;42.162;24.754;2023-03-22T10:42:44;37.55;;;21.20;;
64615;SDS011;51027;42.162;24.754;2023-03-22T10:45:17;38.45;;;21.65;;
64615;SDS011;51027;42.162;24.754;2023-03-22T10:50:52;45.08;;;23.40;;
64615;SDS011;51027;42.162;24.754;2023-03-22T10:53:38;33.28;;;19.38;;
64615;SDS011;51027;42.162;24.754;2023-03-22T10:56:13;33.92;;;17.55;;
64615;SDS011;51027;42.162;24.754;2023-03-22T10:58:40;36.70;;;16.70;;
64615;SDS011;51027;42.162;24.754;2023-03-22T11:01:07;34.05;;;17.08;;
64615;SDS011;51027;42.162;24.754;2023-03-22T11:03:48;30.17;;;15.43;;
64615;SDS011;51027;42.162;24.754;2023-03-22T11:06:17;33.40;;;16.40;;
64615;SDS011;51027;42.162;24.754;2023-03-22T11:08:47;29.20;;;14.02;;
64615;SDS011;51027;42.162;24.754;2023-03-22T11:13:58;26.02;;;13.02;;
64615;SDS011;51027;42.162;24.754;2023-03-22T11:16:46;24.85;;;12.98;;
64615;SDS011;51027;42.162;24.754;2023-03-22T11:19:17;24.90;;;12.95;;
64615;SDS011;51027;42.162;24.754;2023-03-22T11:22:46;24.75;;;11.63;;
64615;SDS011;51027;42.162;24.754;2023-03-22T11:25:25;25.25;;;12.30;;
64615;SDS011;51027;42.162;24.754;2023-03-22T11:27:56;23.38;;;12.07;;
64615;SDS011;51027;42.162;24.754;2023-03-22T11:30:34;25.08;;;12.48;;
64615;SDS011;51027;42.162;24.754;2023-03-22T11:33:01;27.75;;;11.95;;
64615;SDS011;51027;42.162;24.754;2023-03-22T11:35:42;22.00;;;11.38;;
64615;SDS011;51027;42.162;24.754;2023-03-22T11:38:17;28.60;;;12.43;;
64615;SDS011;51027;42.162;24.754;2023-03-22T11:40:48;24.05;;;10.63;;
64615;SDS011;51027;42.162;24.754;2023-03-22T11:43:19;24.98;;;11.55;;
64615;SDS011;51027;42.162;24.754;2023-03-22T11:45:52;27.23;;;13.68;;
64615;SDS011;51027;42.162;24.754;2023-03-22T11:48:22;23.70;;;11.88;;
64615;SDS011;51027;42.162;24.754;2023-03-22T11:51:07;23.80;;;10.85;;
64615;SDS011;51027;42.162;24.754;2023-03-22T11:53:37;23.63;;;9.80;;
64615;SDS011;51027;42.162;24.754;2023-03-22T11:56:08;24.25;;;11.45;;
64615;SDS011;51027;42.162;24.754;2023-03-22T12:01:03;22.98;;;10.80;;
64615;SDS011;51027;42.162;24.754;2023-03-22T12:03:31;26.38;;;12.88;;
64615;SDS011;51027;42.162;24.754;2023-03-22T12:06:03;24.08;;;12.07;;
64615;SDS011;51027;42.162;24.754;2023-03-22T12:08:42;23.25;;;11.75;;
64615;SDS011;51027;42.162;24.754;2023-03-22T12:11:14;24.08;;;11.85;;
64615;SDS011;51027;42.162;24.754;2023-03-22T12:13:59;26.77;;;12.37;;
64615;SDS011;51027;42.162;24.754;2023-03-22T12:16:43;25.05;;;11.98;;
64615;SDS011;51027;42.162;24.754;2023-03-22T12:19:15;24.67;;;11.73;;
64615;SDS011;51027;42.162;24.754;2023-03-22T12:22:06;25.73;;;11.90;;
64615;SDS011;51027;42.162;24.754;2023-03-22T12:24:35;22.30;;;10.52;;
64615;SDS011;51027;42.162;24.754;2023-03-22T12:27:06;24.80;;;11.27;;
64615;SDS011;51027;42.162;24.754;2023-03-22T12:29:35;22.58;;;10.50;;
64615;SDS011;51027;42.162;24.754;2023-03-22T12:32:08;21.05;;;10.13;;
64615;SDS011;51027;42.162;24.754;2023-03-22T12:34:41;18.38;;;8.57;;
64615;SDS011;51027;42.162;24.754;2023-03-22T12:37:14;19.55;;;8.63;;
64615;SDS011;51027;42.162;24.754;2023-03-22T12:39:50;20.67;;;8.68;;
64615;SDS011;51027;42.162;24.754;2023-03-22T12:42:24;22.10;;;9.60;;
64615;SDS011;51027;42.162;24.754;2023-03-22T12:45:02;19.90;;;9.00;;
64615;SDS011;51027;42.162;24.754;2023-03-22T12:47:38;21.25;;;9.50;;
64615;SDS011;51027;42.162;24.754;2023-03-22T12:50:17;21.95;;;9.63;;
64615;SDS011;51027;42.162;24.754;2023-03-22T12:52:48;19.45;;;8.45;;
64615;SDS011;51027;42.162;24.754;2023-03-22T12:55:35;20.77;;;9.50;;
64615;SDS011;51027;42.162;24.754;2023-03-22T12:58:06;18.55;;;8.13;;
64615;SDS011;51027;42.162;24.754;2023-03-22T13:03:16;19.02;;;7.47;;
64615;SDS011;51027;42.162;24.754;2023-03-22T13:05:51;20.77;;;8.68;;
64615;SDS011;51027;42.162;24.754;2023-03-22T13:08:24;19.65;;;8.15;;
64615;SDS011;51027;42.162;24.754;2023-03-22T13:11:00;18.30;;;7.82;;
64615;SDS011;51027;42.162;24.754;2023-03-22T13:21:09;18.00;;;6.97;;
64615;SDS011;51027;42.162;24.754;2023-03-22T13:23:58;16.65;;;6.25;;
64615;SDS011;51027;42.162;24.754;2023-03-22T13:29:15;16.55;;;6.80;;
64615;SDS011;51027;42.162;24.754;2023-03-22T13:31:56;19.25;;;8.18;;
64615;SDS011;51027;42.162;24.754;2023-03-22T13:37:09;15.70;;;6.05;;
64615;SDS011;51027;42.162;24.754;2023-03-22T13:39:50;16.73;;;6.35;;
64615;SDS011;51027;42.162;24.754;2023-03-22T13:42:20;15.50;;;6.10;;
64615;SDS011;51027;42.162;24.754;2023-03-22T13:44:52;17.70;;;6.47;;
64615;SDS011;51027;42.162;24.754;2023-03-22T13:47:30;18.70;;;7.25;;
64615;SDS011;51027;42.162;24.754;2023-03-22T13:49:59;17.20;;;6.45;;
64615;SDS011;51027;42.162;24.754;2023-03-22T13:52:39;16.13;;;5.97;;
64615;SDS011;51027;42.162;24.754;2023-03-22T13:55:15;13.95;;;6.18;;
64615;SDS011;51027;42.162;24.754;2023-03-22T13:57:59;16.90;;;6.22;;
64615;SDS011;51027;42.162;24.754;2023-03-22T14:02:54;16.38;;;6.30;;
64615;SDS011;51027;42.162;24.754;2023-03-22T14:05:24;16.92;;;6.22;;
64615;SDS011;51027;42.162;24.754;2023-03-22T14:07:54;14.73;;;6.13;;
64615;SDS011;51027;42.162;24.754;2023-03-22T14:10:39;18.15;;;7.38;;
64615;SDS011;51027;42.162;24.754;2023-03-22T14:13:24;17.95;;;6.38;;
64615;SDS011;51027;42.162;24.754;2023-03-22T14:15:53;18.40;;;6.57;;
64615;SDS011;51027;42.162;24.754;2023-03-22T14:18:25;16.80;;;6.50;;
64615;SDS011;51027;42.162;24.754;2023-03-22T14:20:54;18.27;;;6.93;;
64615;SDS011;51027;42.162;24.754;2023-03-22T14:23:30;19.10;;;7.30;;
64615;SDS011;51027;42.162;24.754;2023-03-22T14:26:06;20.55;;;7.90;;
64615;SDS011;51027;42.162;24.754;2023-03-22T14:28:39;17.13;;;6.72;;
64615;SDS011;51027;42.162;24.754;2023-03-22T14:33:51;18.35;;;6.47;;
64615;SDS011;51027;42.162;24.754;2023-03-22T14:36:18;24.65;;;10.15;;
64615;SDS011;51027;42.162;24.754;2023-03-22T14:38:46;15.80;;;5.78;;
64615;SDS011;51027;42.162;24.754;2023-03-22T14:41:15;17.98;;;6.65;;
64615;SDS011;51027;42.162;24.754;2023-03-22T14:43:46;16.48;;;6.68;;
64615;SDS011;51027;42.162;24.754;2023-03-22T14:46:14;21.65;;;9.02;;
64615;SDS011;51027;42.162;24.754;2023-03-22T14:48:48;19.70;;;8.55;;
64615;SDS011;51027;42.162;24.754;2023-03-22T14:51:22;19.27;;;8.68;;
64615;SDS011;51027;42.162;24.754;2023-03-22T14:53:52;19.83;;;8.98;;
64615;SDS011;51027;42.162;24.754;2023-03-22T14:56:20;20.15;;;8.18;;
64615;SDS011;51027;42.162;24.754;2023-03-22T14:58:50;20.35;;;8.38;;
64615;SDS011;51027;42.162;24.754;2023-03-22T15:01:22;20.70;;;8.88;;
64615;SDS011;51027;42.162;24.754;2023-03-22T15:03:56;19.42;;;9.15;;
64615;SDS011;51027;42.162;24.754;2023-03-22T15:06:24;26.58;;;12.20;;
64615;SDS011;51027;42.162;24.754;2023-03-22T15:08:52;29.75;;;12.10;;
64615;SDS011;51027;42.162;24.754;2023-03-22T15:11:18;21.45;;;9.68;;
64615;SDS011;51027;42.162;24.754;2023-03-22T15:13:45;20.05;;;9.43;;
64615;SDS011;51027;42.162;24.754;2023-03-22T15:16:15;23.20;;;9.90;;
64615;SDS011;51027;42.162;24.754;2023-03-22T15:18:43;21.45;;;9.57;;
64615;SDS011;51027;42.162;24.754;2023-03-22T15:21:10;22.50;;;9.32;;
64615;SDS011;51027;42.162;24.754;2023-03-22T15:23:37;22.00;;;9.73;;
64615;SDS011;51027;42.162;24.754;2023-03-22T15:26:20;56.90;;;22.38;;
64615;SDS011;51027;42.162;24.754;2023-03-22T15:28:58;29.60;;;14.32;;
64615;SDS011;51027;42.162;24.754;2023-03-22T15:31:32;26.65;;;12.93;;
64615;SDS011;51027;42.162;24.754;2023-03-22T15:34:06;25.08;;;12.88;;
64615;SDS011;51027;42.162;24.754;2023-03-22T15:36:36;26.58;;;14.15;;
64615;SDS011;51027;42.162;24.754;2023-03-22T15:39:03;26.88;;;13.80;;